In Rescue
 
Open Full Screen Window  High Contrast Mode
Wind Gusting 00 knots
04
September 19, 2019 4:53 PM EDT
Weather Information
Wind Direction
  090 °
Wind Speed
  04 kt (5 mph)
Wind Gust
  00 kt (0 mph)
Altimeter
30.11 in
Visibility
10 SM
Temperature
26° C
79° F
Dewpoint
17° C
63° F
Humidity
58%
Sky Condition
Clear
VFR

METAR KDUH 192053Z AUTO 09004KT 10SM CLR 26/17 A3011 RMK AO2 T02600165

FAA Disclaimer: The data displayed is for advisory purposes only and is not to be used for flight planning or operations.